sensor_id;sensor_type;location;lat;lon;timestamp;pressure;altitude;pressure_sealevel;temperature;humidity
46942;BME280;32676;52.630;4.896;2023-04-10T00:01:45;101943.47;;;9.80;69.76
46942;BME280;32676;52.630;4.896;2023-04-10T00:04:11;101924.28;;;9.75;69.84
46942;BME280;32676;52.630;4.896;2023-04-10T00:06:39;101924.28;;;9.75;70.02
46942;BME280;32676;52.630;4.896;2023-04-10T00:09:06;101904.22;;;9.71;70.16
46942;BME280;32676;52.630;4.896;2023-04-10T00:11:32;101899.88;;;9.70;70.20
46942;BME280;32676;52.630;4.896;2023-04-10T00:13:59;101882.41;;;9.66;70.15
46942;BME280;32676;52.630;4.896;2023-04-10T00:16:25;101881.53;;;9.64;70.23
46942;BME280;32676;52.630;4.896;2023-04-10T00:18:51;101868.47;;;9.60;70.37
46942;BME280;32676;52.630;4.896;2023-04-10T00:21:18;101850.13;;;9.57;70.57
46942;BME280;32676;52.630;4.896;2023-04-10T00:23:46;101839.66;;;9.54;70.78
46942;BME280;32676;52.630;4.896;2023-04-10T00:26:12;101837.03;;;9.54;70.59
46942;BME280;32676;52.630;4.896;2023-04-10T00:28:38;101845.75;;;9.56;70.60
46942;BME280;32676;52.630;4.896;2023-04-10T00:31:05;101844.03;;;9.55;70.59
46942;BME280;32676;52.630;4.896;2023-04-10T00:33:31;101840.53;;;9.56;70.69
46942;BME280;32676;52.630;4.896;2023-04-10T00:35:57;101845.75;;;9.56;70.36
46942;BME280;32676;52.630;4.896;2023-04-10T00:38:24;101843.13;;;9.56;70.49
46942;BME280;32676;52.630;4.896;2023-04-10T00:40:51;101841.41;;;9.55;70.43
46942;BME280;32676;52.630;4.896;2023-04-10T00:43:18;101843.16;;;9.55;70.65
46942;BME280;32676;52.630;4.896;2023-04-10T00:45:44;101840.53;;;9.56;70.68
46942;BME280;32676;52.630;4.896;2023-04-10T00:48:10;101859.72;;;9.58;70.60
46942;BME280;32676;52.630;4.896;2023-04-10T00:50:37;101865.84;;;9.60;70.15
46942;BME280;32676;52.630;4.896;2023-04-10T00:53:03;101855.38;;;9.59;69.98
46942;BME280;32676;52.630;4.896;2023-04-10T00:55:30;101838.78;;;9.55;69.74
46942;BME280;32676;52.630;4.896;2023-04-10T00:57:57;101842.28;;;9.54;69.71
46942;BME280;32676;52.630;4.896;2023-04-10T01:00:24;101835.34;;;9.53;69.65
46942;BME280;32676;52.630;4.896;2023-04-10T01:02:50;101821.31;;;9.51;69.70
46942;BME280;32676;52.630;4.896;2023-04-10T01:05:16;101798.72;;;9.44;69.47
46942;BME280;32676;52.630;4.896;2023-04-10T01:07:46;101796.97;;;9.43;69.76
46942;BME280;32676;52.630;4.896;2023-04-10T01:10:17;101774.28;;;9.39;69.75
46942;BME280;32676;52.630;4.896;2023-04-10T01:12:49;101756.81;;;9.35;70.07
46942;BME280;32676;52.630;4.896;2023-04-10T01:15:20;101746.38;;;9.32;69.95
46942;BME280;32676;52.630;4.896;2023-04-10T01:17:48;101728.94;;;9.28;70.18
46942;BME280;32676;52.630;4.896;2023-04-10T01:20:18;101718.50;;;9.25;70.58
46942;BME280;32676;52.630;4.896;2023-04-10T01:22:50;101706.25;;;9.23;70.51
46942;BME280;32676;52.630;4.896;2023-04-10T01:25:36;101688.88;;;9.16;70.58
46942;BME280;32676;52.630;4.896;2023-04-10T01:28:29;101674.06;;;9.14;70.89
46942;BME280;32676;52.630;4.896;2023-04-10T01:31:00;101668.81;;;9.12;71.02
46942;BME280;32676;52.630;4.896;2023-04-10T01:33:28;101647.91;;;9.08;70.96
46942;BME280;32676;52.630;4.896;2023-04-10T01:35:57;101647.03;;;9.07;71.16
46942;BME280;32676;52.630;4.896;2023-04-10T01:38:26;101652.25;;;9.09;71.11
46942;BME280;32676;52.630;4.896;2023-04-10T01:40:53;101641.78;;;9.07;71.21
46942;BME280;32676;52.630;4.896;2023-04-10T01:43:20;101642.66;;;9.08;71.25
46942;BME280;32676;52.630;4.896;2023-04-10T01:45:47;101640.06;;;9.06;71.22
46942;BME280;32676;52.630;4.896;2023-04-10T01:48:17;101647.91;;;9.08;71.26
46942;BME280;32676;52.630;4.896;2023-04-10T01:50:44;101642.69;;;9.06;71.10
46942;BME280;32676;52.630;4.896;2023-04-10T01:53:10;101667.13;;;9.10;71.06
46942;BME280;32676;52.630;4.896;2023-04-10T01:55:37;101665.34;;;9.12;70.96
46942;BME280;32676;52.630;4.896;2023-04-10T01:58:04;101663.59;;;9.12;70.83
46942;BME280;32676;52.630;4.896;2023-04-10T02:00:36;101674.91;;;9.14;70.92
46942;BME280;32676;52.630;4.896;2023-04-10T02:03:02;101666.22;;;9.12;70.89
46942;BME280;32676;52.630;4.896;2023-04-10T02:05:32;101685.38;;;9.17;70.79
46942;BME280;32676;52.630;4.896;2023-04-10T02:08:04;101680.16;;;9.14;70.85
46942;BME280;32676;52.630;4.896;2023-04-10T02:10:32;101667.97;;;9.12;70.66
46942;BME280;32676;52.630;4.896;2023-04-10T02:13:04;101660.97;;;9.12;70.75
46942;BME280;32676;52.630;4.896;2023-04-10T02:15:31;101679.28;;;9.15;70.92
46942;BME280;32676;52.630;4.896;2023-04-10T02:17:58;101673.19;;;9.13;70.71
46942;BME280;32676;52.630;4.896;2023-04-10T02:20:25;101650.56;;;9.06;70.98
46942;BME280;32676;52.630;4.896;2023-04-10T02:22:53;101613.91;;;9.00;71.25
46942;BME280;32676;52.630;4.896;2023-04-10T02:25:20;101593.91;;;8.94;71.39
46942;BME280;32676;52.630;4.896;2023-04-10T02:27:47;101598.28;;;8.94;71.55
46942;BME280;32676;52.630;4.896;2023-04-10T02:30:13;101580.88;;;8.90;71.58
46942;BME280;32676;52.630;4.896;2023-04-10T02:32:40;101555.56;;;8.86;71.81
46942;BME280;32676;52.630;4.896;2023-04-10T02:35:07;101556.47;;;8.84;71.97
46942;BME280;32676;52.630;4.896;2023-04-10T02:37:33;101540.78;;;8.81;71.94
46942;BME280;32676;52.630;4.896;2023-04-10T02:40:01;101556.47;;;8.84;72.04
46942;BME280;32676;52.630;4.896;2023-04-10T02:42:27;101578.28;;;8.88;71.84
46942;BME280;32676;52.630;4.896;2023-04-10T02:44:54;101587.84;;;8.91;71.82
46942;BME280;32676;52.630;4.896;2023-04-10T02:47:21;101584.34;;;8.92;71.75
46942;BME280;32676;52.630;4.896;2023-04-10T02:49:47;101602.63;;;8.95;71.59
46942;BME280;32676;52.630;4.896;2023-04-10T02:52:14;101603.50;;;8.95;71.59
46942;BME280;32676;52.630;4.896;2023-04-10T02:54:41;101612.22;;;8.97;71.62
46942;BME280;32676;52.630;4.896;2023-04-10T02:57:09;101607.00;;;8.96;71.49
46942;BME280;32676;52.630;4.896;2023-04-10T02:59:35;101600.00;;;8.95;71.40
46942;BME280;32676;52.630;4.896;2023-04-10T03:02:01;101586.06;;;8.93;71.47
46942;BME280;32676;52.630;4.896;2023-04-10T03:04:30;101589.56;;;8.93;71.35
46942;BME280;32676;52.630;4.896;2023-04-10T03:06:56;101603.50;;;8.97;71.35
46942;BME280;32676;52.630;4.896;2023-04-10T03:09:23;101612.22;;;8.96;71.30
46942;BME280;32676;52.630;4.896;2023-04-10T03:11:49;101614.84;;;8.97;71.43
46942;BME280;32676;52.630;4.896;2023-04-10T03:14:17;101603.50;;;8.97;71.43
46942;BME280;32676;52.630;4.896;2023-04-10T03:16:44;101598.28;;;8.95;71.43
46942;BME280;32676;52.630;4.896;2023-04-10T03:19:11;101592.19;;;8.92;71.55
46942;BME280;32676;52.630;4.896;2023-04-10T03:21:38;101573.88;;;8.89;71.56
46942;BME280;32676;52.630;4.896;2023-04-10T03:24:04;101588.69;;;8.91;71.62
46942;BME280;32676;52.630;4.896;2023-04-10T03:26:31;101569.53;;;8.88;71.86
46942;BME280;32676;52.630;4.896;2023-04-10T03:28:57;101565.19;;;8.87;71.96
46942;BME280;32676;52.630;4.896;2023-04-10T03:31:25;101559.94;;;8.87;71.97
46942;BME280;32676;52.630;4.896;2023-04-10T03:33:51;101553.00;;;8.82;72.15
46942;BME280;32676;52.630;4.896;2023-04-10T03:36:17;101554.72;;;8.83;71.99
46942;BME280;32676;52.630;4.896;2023-04-10T03:38:44;101546.03;;;8.81;72.24
46942;BME280;32676;52.630;4.896;2023-04-10T03:41:10;101566.06;;;8.86;72.29
46942;BME280;32676;52.630;4.896;2023-04-10T03:43:36;101557.34;;;8.83;72.30
46942;BME280;32676;52.630;4.896;2023-04-10T03:46:03;101569.56;;;8.86;72.32
46942;BME280;32676;52.630;4.896;2023-04-10T03:48:31;101561.72;;;8.84;72.44
46942;BME280;32676;52.630;4.896;2023-04-10T03:50:57;101563.44;;;8.84;72.36
46942;BME280;32676;52.630;4.896;2023-04-10T03:53:24;101558.22;;;8.84;72.52
46942;BME280;32676;52.630;4.896;2023-04-10T03:55:50;101546.03;;;8.81;72.49
46942;BME280;32676;52.630;4.896;2023-04-10T03:58:17;101538.19;;;8.78;72.51
46942;BME280;32676;52.630;4.896;2023-04-10T04:00:43;101542.56;;;8.79;72.58
46942;BME280;32676;52.630;4.896;2023-04-10T04:03:10;101551.25;;;8.81;72.66
46942;BME280;32676;52.630;4.896;2023-04-10T04:05:37;101553.00;;;8.82;72.60
46942;BME280;32676;52.630;4.896;2023-04-10T04:08:04;101559.97;;;8.83;72.45
46942;BME280;32676;52.630;4.896;2023-04-10T04:10:30;101558.25;;;8.82;72.54
46942;BME280;32676;52.630;4.896;2023-04-10T04:12:57;101561.72;;;8.84;72.29
46942;BME280;32676;52.630;4.896;2023-04-10T04:15:23;101559.97;;;8.83;72.36
46942;BME280;32676;52.630;4.896;2023-04-10T04:17:49;101565.22;;;8.83;72.34
46942;BME280;32676;52.630;4.896;2023-04-10T04:20:16;101564.34;;;8.84;72.19
46942;BME280;32676;52.630;4.896;2023-04-10T04:22:43;101566.97;;;8.84;72.21
46942;BME280;32676;52.630;4.896;2023-04-10T04:25:10;101584.38;;;8.89;72.08
46942;BME280;32676;52.630;4.896;2023-04-10T04:27:36;101582.63;;;8.88;72.13
46942;BME280;32676;52.630;4.896;2023-04-10T04:30:03;101585.22;;;8.89;72.06
46942;BME280;32676;52.630;4.896;2023-04-10T04:32:30;101580.88;;;8.88;72.24
46942;BME280;32676;52.630;4.896;2023-04-10T04:34:56;101570.41;;;8.87;72.21
46942;BME280;32676;52.630;4.896;2023-04-10T04:37:22;101577.38;;;8.88;72.04
46942;BME280;32676;52.630;4.896;2023-04-10T04:39:50;101587.84;;;8.91;71.98
46942;BME280;32676;52.630;4.896;2023-04-10T04:42:16;101598.31;;;8.91;71.89
46942;BME280;32676;52.630;4.896;2023-04-10T04:44:42;101601.78;;;8.93;71.82
46942;BME280;32676;52.630;4.896;2023-04-10T04:47:09;101587.84;;;8.91;71.91
46942;BME280;32676;52.630;4.896;2023-04-10T04:49:35;101581.75;;;8.89;71.74
46942;BME280;32676;52.630;4.896;2023-04-10T04:52:02;101589.59;;;8.89;71.84
46942;BME280;32676;52.630;4.896;2023-04-10T04:54:28;101583.50;;;8.88;71.66
46942;BME280;32676;52.630;4.896;2023-04-10T04:56:55;101588.75;;;8.90;71.66
46942;BME280;32676;52.630;4.896;2023-04-10T04:59:22;101588.75;;;8.90;71.51
46942;BME280;32676;52.630;4.896;2023-04-10T05:01:48;101609.63;;;8.94;71.68
46942;BME280;32676;52.630;4.896;2023-04-10T05:04:15;101609.63;;;8.94;71.54
46942;BME280;32676;52.630;4.896;2023-04-10T05:06:41;101619.22;;;8.97;71.55
46942;BME280;32676;52.630;4.896;2023-04-10T05:09:07;101627.94;;;8.99;71.43
46942;BME280;32676;52.630;4.896;2023-04-10T05:11:33;101640.09;;;9.03;71.31
46942;BME280;32676;52.630;4.896;2023-04-10T05:14:01;101655.81;;;9.06;71.28
46942;BME280;32676;52.630;4.896;2023-04-10T05:16:27;101671.50;;;9.08;71.14
46942;BME280;32676;52.630;4.896;2023-04-10T05:18:54;101685.41;;;9.14;71.15
46942;BME280;32676;52.630;4.896;2023-04-10T05:21:20;101689.78;;;9.14;70.96
46942;BME280;32676;52.630;4.896;2023-04-10T05:23:47;101701.13;;;9.14;70.84
46942;BME280;32676;52.630;4.896;2023-04-10T05:26:13;101708.06;;;9.18;70.65
46942;BME280;32676;52.630;4.896;2023-04-10T05:28:39;101716.81;;;9.20;70.60
46942;BME280;32676;52.630;4.896;2023-04-10T05:31:07;101723.78;;;9.21;70.34
46942;BME280;32676;52.630;4.896;2023-04-10T05:33:33;101730.78;;;9.22;70.47
46942;BME280;32676;52.630;4.896;2023-04-10T05:36:00;101742.94;;;9.27;70.26
46942;BME280;32676;52.630;4.896;2023-04-10T05:38:27;101758.66;;;9.30;70.32
46942;BME280;32676;52.630;4.896;2023-04-10T05:40:53;101760.38;;;9.31;70.33
46942;BME280;32676;52.630;4.896;2023-04-10T05:43:20;101763.84;;;9.33;70.28
46942;BME280;32676;52.630;4.896;2023-04-10T05:45:46;101787.44;;;9.36;70.00
46942;BME280;32676;52.630;4.896;2023-04-10T05:48:16;101792.66;;;9.37;70.05
46942;BME280;32676;52.630;4.896;2023-04-10T05:50:42;101801.38;;;9.39;70.01
46942;BME280;32676;52.630;4.896;2023-04-10T05:53:11;101819.69;;;9.44;69.95
46942;BME280;32676;52.630;4.896;2023-04-10T05:55:38;101847.56;;;9.51;69.85
46942;BME280;32676;52.630;4.896;2023-04-10T05:58:04;101858.94;;;9.53;69.74
46942;BME280;32676;52.630;4.896;2023-04-10T06:00:30;101854.56;;;9.52;69.59
46942;BME280;32676;52.630;4.896;2023-04-10T06:02:57;101862.44;;;9.54;69.57
46942;BME280;32676;52.630;4.896;2023-04-10T06:05:24;101864.16;;;9.55;69.55
46942;BME280;32676;52.630;4.896;2023-04-10T06:07:50;101880.72;;;9.58;69.39
46942;BME280;32676;52.630;4.896;2023-04-10T06:10:17;101885.97;;;9.58;69.64
46942;BME280;32676;52.630;4.896;2023-04-10T06:12:43;101885.97;;;9.58;70.03
46942;BME280;32676;52.630;4.896;2023-04-10T06:15:10;101897.31;;;9.62;70.45
46942;BME280;32676;52.630;4.896;2023-04-10T06:17:40;101901.69;;;9.61;70.55
46942;BME280;32676;52.630;4.896;2023-04-10T06:20:07;101906.91;;;9.65;70.92
46942;BME280;32676;52.630;4.896;2023-04-10T06:22:35;101907.78;;;9.65;70.82
46942;BME280;32676;52.630;4.896;2023-04-10T06:25:01;101906.91;;;9.65;70.90
46942;BME280;32676;52.630;4.896;2023-04-10T06:27:29;101906.06;;;9.64;70.55
46942;BME280;32676;52.630;4.896;2023-04-10T06:29:55;101915.63;;;9.67;70.38
46942;BME280;32676;52.630;4.896;2023-04-10T06:32:22;101919.97;;;9.68;70.37
46942;BME280;32676;52.630;4.896;2023-04-10T06:34:48;101919.13;;;9.69;70.17
46942;BME280;32676;52.630;4.896;2023-04-10T06:37:15;101947.94;;;9.73;69.70
46942;BME280;32676;52.630;4.896;2023-04-10T06:39:42;101947.03;;;9.74;69.59
46942;BME280;32676;52.630;4.896;2023-04-10T06:42:09;101967.09;;;9.80;69.29
46942;BME280;32676;52.630;4.896;2023-04-10T06:44:35;101967.09;;;9.80;69.19
46942;BME280;32676;52.630;4.896;2023-04-10T06:47:02;101987.22;;;9.84;68.71
46942;BME280;32676;52.630;4.896;2023-04-10T06:49:30;102001.13;;;9.89;68.68
46942;BME280;32676;52.630;4.896;2023-04-10T06:51:57;102029.97;;;9.94;68.67
46942;BME280;32676;52.630;4.896;2023-04-10T06:54:23;102048.28;;;9.98;68.63
46942;BME280;32676;52.630;4.896;2023-04-10T06:56:51;102055.28;;;10.01;68.36
46942;BME280;32676;52.630;4.896;2023-04-10T06:59:17;102086.72;;;10.09;68.55
46942;BME280;32676;52.630;4.896;2023-04-10T07:01:43;102098.94;;;10.13;68.18
46942;BME280;32676;52.630;4.896;2023-04-10T07:04:09;102116.41;;;10.17;68.33
46942;BME280;32676;52.630;4.896;2023-04-10T07:06:36;102130.41;;;10.19;67.93
46942;BME280;32676;52.630;4.896;2023-04-10T07:09:02;102144.38;;;10.24;67.96
46942;BME280;32676;52.630;4.896;2023-04-10T07:11:28;102160.97;;;10.28;67.79
46942;BME280;32676;52.630;4.896;2023-04-10T07:13:56;102195.09;;;10.35;67.71
46942;BME280;32676;52.630;4.896;2023-04-10T07:16:23;102216.94;;;10.41;67.47
46942;BME280;32676;52.630;4.896;2023-04-10T07:18:49;102240.53;;;10.47;67.15
46942;BME280;32676;52.630;4.896;2023-04-10T07:21:15;102274.59;;;10.56;67.02
46942;BME280;32676;52.630;4.896;2023-04-10T07:23:41;102296.47;;;10.61;66.68
46942;BME280;32676;52.630;4.896;2023-04-10T07:26:08;102307.84;;;10.63;66.31
46942;BME280;32676;52.630;4.896;2023-04-10T07:28:34;102338.44;;;10.70;65.88
46942;BME280;32676;52.630;4.896;2023-04-10T07:31:02;102364.66;;;10.78;65.98
46942;BME280;32676;52.630;4.896;2023-04-10T07:33:28;102383.91;;;10.82;65.69
46942;BME280;32676;52.630;4.896;2023-04-10T07:35:55;102394.44;;;10.82;65.22
46942;BME280;32676;52.630;4.896;2023-04-10T07:38:21;102397.91;;;10.84;65.04
46942;BME280;32676;52.630;4.896;2023-04-10T07:40:48;102415.44;;;10.88;65.04
46942;BME280;32676;52.630;4.896;2023-04-10T07:43:14;102430.31;;;10.92;64.87
46942;BME280;32676;52.630;4.896;2023-04-10T07:45:41;102453.91;;;10.98;64.91
46942;BME280;32676;52.630;4.896;2023-04-10T07:48:08;102479.28;;;11.05;64.47
46942;BME280;32676;52.630;4.896;2023-04-10T07:50:35;102498.56;;;11.09;64.38
46942;BME280;32676;52.630;4.896;2023-04-10T07:53:01;102519.59;;;11.13;64.30
46942;BME280;32676;52.630;4.896;2023-04-10T07:55:31;102523.09;;;11.14;64.04
46942;BME280;32676;52.630;4.896;2023-04-10T07:57:58;102535.31;;;11.18;63.56
46942;BME280;32676;52.630;4.896;2023-04-10T08:00:24;102558.09;;;11.24;63.53
46942;BME280;32676;52.630;4.896;2023-04-10T08:02:50;102607.13;;;11.36;63.88
46942;BME280;32676;52.630;4.896;2023-04-10T08:05:18;102650.97;;;11.44;63.51
46942;BME280;32676;52.630;4.896;2023-04-10T08:07:44;102668.47;;;11.50;63.60
46942;BME280;32676;52.630;4.896;2023-04-10T08:10:11;102716.66;;;11.60;63.54
46942;BME280;32676;52.630;4.896;2023-04-10T08:12:37;102737.69;;;11.66;63.15
46942;BME280;32676;52.630;4.896;2023-04-10T08:15:04;102767.50;;;11.74;62.71
46942;BME280;32676;52.630;4.896;2023-04-10T08:17:30;102795.56;;;11.80;62.86
46942;BME280;32676;52.630;4.896;2023-04-10T08:19:56;102820.97;;;11.87;62.66
46942;BME280;32676;52.630;4.896;2023-04-10T08:22:24;102859.59;;;11.97;62.37
46942;BME280;32676;52.630;4.896;2023-04-10T08:24:50;102886.78;;;12.04;62.48
46942;BME280;32676;52.630;4.896;2023-04-10T08:27:17;102906.06;;;12.09;62.14
46942;BME280;32676;52.630;4.896;2023-04-10T08:29:43;102918.38;;;12.10;62.04
46942;BME280;32676;52.630;4.896;2023-04-10T08:32:09;102924.53;;;12.12;62.29
46942;BME280;32676;52.630;4.896;2023-04-10T08:34:36;102930.66;;;12.14;61.63
46942;BME280;32676;52.630;4.896;2023-04-10T08:37:04;102914.84;;;12.11;61.39
46942;BME280;32676;52.630;4.896;2023-04-10T08:39:31;102906.06;;;12.09;61.35
46942;BME280;32676;52.630;4.896;2023-04-10T08:41:59;102900.81;;;12.09;61.69
46942;BME280;32676;52.630;4.896;2023-04-10T08:44:25;102890.28;;;12.06;61.73
46942;BME280;32676;52.630;4.896;2023-04-10T08:46:52;102876.22;;;12.04;61.88
46942;BME280;32676;52.630;4.896;2023-04-10T08:49:21;102869.22;;;12.01;61.90
46942;BME280;32676;52.630;4.896;2023-04-10T08:51:50;102869.22;;;12.03;62.02
46942;BME280;32676;52.630;4.896;2023-04-10T08:54:20;102860.47;;;12.01;62.21
46942;BME280;32676;52.630;4.896;2023-04-10T08:56:50;102870.09;;;12.02;62.32
46942;BME280;32676;52.630;4.896;2023-04-10T08:59:18;102878.00;;;12.05;62.11
46942;BME280;32676;52.630;4.896;2023-04-10T09:01:45;102871.88;;;12.04;62.62
46942;BME280;32676;52.630;4.896;2023-04-10T09:04:11;102878.00;;;12.05;61.96
46942;BME280;32676;52.630;4.896;2023-04-10T09:06:38;102920.13;;;12.14;62.17
46942;BME280;32676;52.630;4.896;2023-04-10T09:09:04;102934.16;;;12.19;61.73
46942;BME280;32676;52.630;4.896;2023-04-10T09:14:20;102964.00;;;12.24;61.28
46942;BME280;32676;52.630;4.896;2023-04-10T09:16:46;102987.69;;;12.31;60.71
46942;BME280;32676;52.630;4.896;2023-04-10T09:19:13;102999.97;;;12.35;60.80
46942;BME280;32676;52.630;4.896;2023-04-10T09:21:54;103032.44;;;12.43;60.87
46942;BME280;32676;52.630;4.896;2023-04-10T09:24:20;103064.06;;;12.52;61.13
46942;BME280;32676;52.630;4.896;2023-04-10T09:26:47;103100.94;;;12.58;61.07
46942;BME280;32676;52.630;4.896;2023-04-10T09:29:14;103143.09;;;12.71;61.27
46942;BME280;32676;52.630;4.896;2023-04-10T09:31:42;103192.31;;;12.81;61.53
46942;BME280;32676;52.630;4.896;2023-04-10T09:34:12;103237.13;;;12.93;61.01
46942;BME280;32676;52.630;4.896;2023-04-10T09:36:39;103274.94;;;13.01;61.19
46942;BME280;32676;52.630;4.896;2023-04-10T09:39:06;103295.16;;;13.09;60.92
46942;BME280;32676;52.630;4.896;2023-04-10T09:41:33;103325.94;;;13.16;60.36
46942;BME280;32676;52.630;4.896;2023-04-10T09:44:05;103362.00;;;13.24;59.95
46942;BME280;32676;52.630;4.896;2023-04-10T09:46:32;103414.78;;;13.37;59.73
46942;BME280;32676;52.630;4.896;2023-04-10T09:49:00;103435.91;;;13.41;59.54
46942;BME280;32676;52.630;4.896;2023-04-10T09:51:29;103463.19;;;13.50;59.44
46942;BME280;32676;52.630;4.896;2023-04-10T09:53:55;103475.50;;;13.51;59.02
46942;BME280;32676;52.630;4.896;2023-04-10T09:56:22;103479.91;;;13.53;59.10
46942;BME280;32676;52.630;4.896;2023-04-10T09:58:50;103487.81;;;13.55;58.92
46942;BME280;32676;52.630;4.896;2023-04-10T10:01:17;103497.53;;;13.59;58.55
46942;BME280;32676;52.630;4.896;2023-04-10T10:03:43;103503.69;;;13.61;58.73
46942;BME280;32676;52.630;4.896;2023-04-10T10:06:11;103519.50;;;13.64;58.62
46942;BME280;32676;52.630;4.896;2023-04-10T10:08:38;103526.56;;;13.67;58.50
46942;BME280;32676;52.630;4.896;2023-04-10T10:11:05;103549.47;;;13.72;58.44
46942;BME280;32676;52.630;4.896;2023-04-10T10:13:36;103551.19;;;13.73;58.69
46942;BME280;32676;52.630;4.896;2023-04-10T10:16:07;103549.47;;;13.72;58.17
46942;BME280;32676;52.630;4.896;2023-04-10T10:18:38;103559.13;;;13.75;58.09
46942;BME280;32676;52.630;4.896;2023-04-10T10:21:09;103570.56;;;13.78;58.05
46942;BME280;32676;52.630;4.896;2023-04-10T10:23:36;103567.94;;;13.78;57.90
46942;BME280;32676;52.630;4.896;2023-04-10T10:26:03;103571.47;;;13.79;57.72
46942;BME280;32676;52.630;4.896;2023-04-10T10:28:30;103549.47;;;13.75;57.83
46942;BME280;32676;52.630;4.896;2023-04-10T10:30:58;103565.28;;;13.78;58.12
46942;BME280;32676;52.630;4.896;2023-04-10T10:33:25;103582.03;;;13.83;58.08
46942;BME280;32676;52.630;4.896;2023-04-10T10:35:51;103583.81;;;13.85;57.79
46942;BME280;32676;52.630;4.896;2023-04-10T10:38:17;103582.03;;;13.85;57.73
46942;BME280;32676;52.630;4.896;2023-04-10T10:40:47;103589.06;;;13.88;57.65
46942;BME280;32676;52.630;4.896;2023-04-10T10:43:17;103606.69;;;13.90;58.38
46942;BME280;32676;52.630;4.896;2023-04-10T10:45:47;103630.47;;;13.98;58.14
46942;BME280;32676;52.630;4.896;2023-04-10T10:48:15;103668.38;;;14.06;58.00
46942;BME280;32676;52.630;4.896;2023-04-10T10:50:52;103693.91;;;14.13;57.82
46942;BME280;32676;52.630;4.896;2023-04-10T10:58:48;103769.69;;;14.33;56.70
46942;BME280;32676;52.630;4.896;2023-04-10T11:01:15;103803.22;;;14.40;56.63
46942;BME280;32676;52.630;4.896;2023-04-10T11:03:41;103817.31;;;14.45;57.07
46942;BME280;32676;52.630;4.896;2023-04-10T11:06:08;103852.59;;;14.53;56.95
46942;BME280;32676;52.630;4.896;2023-04-10T11:08:37;103880.84;;;14.61;56.70
46942;BME280;32676;52.630;4.896;2023-04-10T11:11:12;103916.16;;;14.69;56.23
46942;BME280;32676;52.630;4.896;2023-04-10T11:13:40;103943.50;;;14.77;56.73
46942;BME280;32676;52.630;4.896;2023-04-10T11:16:09;103962.91;;;14.81;56.11
46942;BME280;32676;52.630;4.896;2023-04-10T11:21:22;103977.03;;;14.86;55.85
46942;BME280;32676;52.630;4.896;2023-04-10T11:24:00;104002.63;;;14.91;55.84
46942;BME280;32676;52.630;4.896;2023-04-10T11:26:36;104011.47;;;14.96;55.91
46942;BME280;32676;52.630;4.896;2023-04-10T11:29:04;104043.28;;;15.03;55.87
46942;BME280;32676;52.630;4.896;2023-04-10T11:31:32;104089.19;;;15.14;55.98
46942;BME280;32676;52.630;4.896;2023-04-10T11:34:02;104105.97;;;15.18;56.29
46942;BME280;32676;52.630;4.896;2023-04-10T11:36:30;104135.09;;;15.25;56.37
46942;BME280;32676;52.630;4.896;2023-04-10T11:38:57;104147.47;;;15.29;56.32
46942;BME280;32676;52.630;4.896;2023-04-10T11:41:27;104181.03;;;15.36;56.05
46942;BME280;32676;52.630;4.896;2023-04-10T11:43:54;104205.81;;;15.45;56.21
46942;BME280;32676;52.630;4.896;2023-04-10T11:46:21;104220.81;;;15.47;55.79
46942;BME280;32676;52.630;4.896;2023-04-10T11:48:52;104220.81;;;15.47;55.77
46942;BME280;32676;52.630;4.896;2023-04-10T11:51:18;104214.66;;;15.48;55.77
46942;BME280;32676;52.630;4.896;2023-04-10T11:53:45;104202.25;;;15.46;56.10
46942;BME280;32676;52.630;4.896;2023-04-10T11:56:15;104160.72;;;15.39;55.66
46942;BME280;32676;52.630;4.896;2023-04-10T11:58:41;104131.56;;;15.29;56.13
46942;BME280;32676;52.630;4.896;2023-04-10T12:01:08;104078.56;;;15.20;56.06
46942;BME280;32676;52.630;4.896;2023-04-10T12:03:39;104037.97;;;15.09;56.05
46942;BME280;32676;52.630;4.896;2023-04-10T12:06:08;104007.94;;;15.04;56.27
46942;BME280;32676;52.630;4.896;2023-04-10T12:08:36;103977.91;;;14.98;56.56
46942;BME280;32676;52.630;4.896;2023-04-10T12:11:02;103937.34;;;14.90;57.16
46942;BME280;32676;52.630;4.896;2023-04-10T12:13:29;103914.41;;;14.86;57.34
46942;BME280;32676;52.630;4.896;2023-04-10T12:15:56;103895.84;;;14.82;57.68
46942;BME280;32676;52.630;4.896;2023-04-10T12:18:23;103876.44;;;14.78;58.01
46942;BME280;32676;52.630;4.896;2023-04-10T12:20:50;103868.50;;;14.75;58.52
46942;BME280;32676;52.630;4.896;2023-04-10T12:23:21;103849.09;;;14.73;58.42
46942;BME280;32676;52.630;4.896;2023-04-10T12:25:48;103813.81;;;14.65;58.53
46942;BME280;32676;52.630;4.896;2023-04-10T12:28:19;103793.50;;;14.61;58.71
46942;BME280;32676;52.630;4.896;2023-04-10T12:30:46;103767.91;;;14.56;58.26
46942;BME280;32676;52.630;4.896;2023-04-10T12:33:13;103754.69;;;14.53;58.61
46942;BME280;32676;52.630;4.896;2023-04-10T12:35:39;103738.81;;;14.50;58.83
46942;BME280;32676;52.630;4.896;2023-04-10T12:38:06;103728.25;;;14.49;59.14
46942;BME280;32676;52.630;4.896;2023-04-10T12:40:34;103723.81;;;14.49;59.42
46942;BME280;32676;52.630;4.896;2023-04-10T12:43:02;103726.47;;;14.49;59.72
46942;BME280;32676;52.630;4.896;2023-04-10T12:45:40;103737.06;;;14.51;59.99
46942;BME280;32676;52.630;4.896;2023-04-10T12:48:06;103722.94;;;14.49;60.66
46942;BME280;32676;52.630;4.896;2023-04-10T12:50:33;103702.69;;;14.46;60.53
46942;BME280;32676;52.630;4.896;2023-04-10T12:53:03;103715.88;;;14.49;60.59
46942;BME280;32676;52.630;4.896;2023-04-10T12:55:30;103709.72;;;14.47;60.77
46942;BME280;32676;52.630;4.896;2023-04-10T12:58:03;103705.28;;;14.48;61.62
46942;BME280;32676;52.630;4.896;2023-04-10T13:00:40;103702.69;;;14.46;61.95
46942;BME280;32676;52.630;4.896;2023-04-10T13:03:06;103699.13;;;14.47;62.90
46942;BME280;32676;52.630;4.896;2023-04-10T13:05:33;103683.25;;;14.44;63.26
46942;BME280;32676;52.630;4.896;2023-04-10T13:07:59;103670.94;;;14.40;63.72